Latest Weather Observations for Murrurundi Gap

IDN60801

Issued at 10:05 am EST Saturday 30 August 2014 (issued every 30 minutes, with the page automatically refreshed every 10 minutes)

About weather observations | Map of weather stations | Latest weather observations for NSW | Other Formats
Station Details ID: 061392 Name: MURRURUNDI GAP AWS Lat: -31.74 Lon: 150.79 Height: 729.4 m
Data from the previous 72 hours. | See also: Recent months for locations in New South Wales
Date/Time
EST
Temp
°C
App
Temp
°C
Dew
Point
Rel
Hum
%
Delta-T
°C
Wind Press
QNH
hPa
Press
MSL
hPa
Rain
since 9 am
mm
Dir
 
Spd
km/h
Gust
km/h
Spd
kts
Gust
kts
30/10:00am 8.0 1.1 7.2 95 0.4 SSE 33 44 18 24 1023.1 1022.9 0.0
30/09:30am 7.9 0.9 6.8 93 0.5 SE 33 43 18 23 1023.2 - 0.0
30/09:00am 7.7 0.8 6.5 92 0.6 SE 32 39 17 21 1022.9 1022.7 0.0
30/08:30am 7.7 0.7 6.2 90 0.7 SSE 32 43 17 23 1022.8 - 0.0
30/08:00am 7.5 -0.5 5.6 88 0.9 SSE 37 46 20 25 1022.6 1022.4 0.0
30/07:30am 7.7 -0.7 5.5 86 1.0 SSE 39 50 21 27 1022.5 - 0.0
30/07:11am 7.6 -0.5 5.1 84 1.2 SSE 37 48 20 26 1022.3 - 0.0
30/07:00am 7.5 -0.3 4.8 83 1.2 SSE 35 46 19 25 1022.3 1022.1 0.0
30/06:30am 7.4 -0.5 4.5 82 1.3 SE 35 46 19 25 1022.0 - 0.0
30/06:00am 7.7 -1.6 5.0 83 1.2 SE 43 70 23 38 1021.1 1020.9 0.0
30/05:47am 7.6 -1.9 4.9 83 1.2 SSE 44 65 24 35 1020.7 - 0.0
30/05:30am 7.5 -2.8 4.6 82 1.3 SSE 48 63 26 34 1020.7 - 0.0
30/05:06am 7.3 -2.4 4.1 80 1.4 SSE 44 63 24 34 1020.9 - 0.0
30/05:00am 7.3 -2.1 4.4 82 1.3 SE 43 57 23 31 1021.2 1021.0 0.0
30/04:39am 7.2 -1.9 4.2 81 1.4 SSE 41 59 22 32 1021.3 - 0.0
30/04:30am 7.2 -2.4 4.3 82 1.3 SSE 44 59 24 32 1021.1 - 0.0
30/04:00am 7.1 -2.3 4.6 84 1.1 SSE 43 54 23 29 1021.4 1021.2 0.0
30/03:30am 7.1 -0.7 4.8 85 1.1 SE 35 50 19 27 1021.7 - 0.0
30/03:00am 7.3 -0.9 4.8 84 1.1 SE 37 50 20 27 1021.5 1021.3 0.0
30/02:54am 7.3 -1.3 4.6 83 1.2 SE 39 57 21 31 1021.5 - 0.0
30/02:30am 7.4 -3.3 4.5 82 1.3 SSE 50 65 27 35 1021.3 - 0.0
30/02:04am 7.6 -2.0 4.4 80 1.5 SSE 44 63 24 34 1021.5 - 0.0
30/02:00am 7.5 -2.1 4.5 81 1.4 SE 44 57 24 31 1021.8 1021.5 0.0
30/01:30am 7.5 -2.1 4.3 80 1.4 SSE 44 57 24 31 1022.4 - 0.0
30/01:00am 7.9 -1.2 3.9 76 1.8 SE 41 59 22 32 1022.7 1022.5 0.0
30/12:30am 7.8 -0.1 4.2 78 1.6 SE 35 54 19 29 1023.5 - 0.0
30/12:02am 7.8 0.4 4.9 82 1.3 SSE 33 52 18 28 1023.8 - 0.0
30/12:00am 7.9 0.1 4.7 80 1.5 SSE 35 52 19 28 1023.8 1023.6 0.0
 
Date/Time
EST
Temp
°C
App
Temp
°C
Dew
Point
Rel
Hum
%
Delta-T
°C
Wind Press
QNH
hPa
Press
MSL
hPa
Rain
since 9 am
mm
Dir
 
Spd
km/h
Gust
km/h
Spd
kts
Gust
kts
29/11:30pm 7.9 0.2 5.2 83 1.3 SE 35 50 19 27 1023.8 - 0.0
29/11:00pm 8.1 -1.2 5.2 82 1.3 SE 43 63 23 34 1023.4 1023.2 0.0
29/10:30pm 8.3 -0.1 5.6 83 1.3 SSE 39 61 21 33 1023.5 - 0.0
29/10:27pm 8.5 -0.3 5.4 81 1.5 SSE 41 61 22 33 1023.2 - 0.0
29/10:22pm 8.4 0.0 5.7 83 1.3 SSE 39 48 21 26 1023.5 - 0.0
29/10:00pm 8.2 0.3 6.0 86 1.0 SE 37 54 20 29 1023.5 1023.3 0.0
29/09:30pm 8.5 1.3 6.0 84 1.2 SE 33 48 18 26 1023.8 - 0.0
29/09:00pm 9.0 1.4 5.9 81 1.5 SE 35 54 19 29 1023.9 1023.7 0.0
29/08:55pm 9.2 1.6 5.8 79 1.6 SE 35 54 19 29 1023.7 - 0.0
29/08:30pm 9.0 2.8 6.1 82 1.4 SE 28 44 15 24 1023.9 - 0.0
29/08:00pm 9.2 3.0 6.3 82 1.4 SE 28 43 15 23 1024.0 1023.8 0.0
29/07:30pm 8.8 3.4 6.4 85 1.2 SSE 24 32 13 17 1023.9 - 0.0
29/07:00pm 9.0 4.4 6.3 83 1.3 SE 20 30 11 16 1023.7 1023.5 0.0
29/06:30pm 9.3 4.6 6.0 80 1.6 SE 20 32 11 17 1023.5 - 0.0
29/06:00pm 9.8 4.7 5.8 76 1.9 SE 22 28 12 15 1023.4 1023.2 0.0
29/05:30pm 10.1 5.4 5.3 72 2.3 SE 19 24 10 13 1023.2 - 0.0
29/05:00pm 10.7 5.0 5.0 68 2.7 SSE 24 39 13 21 1023.1 1022.9 0.0
29/04:30pm 11.2 5.6 5.3 67 2.8 SE 24 32 13 17 1022.9 - 0.0
29/04:00pm 11.7 6.2 5.8 67 2.9 SE 24 32 13 17 1023.1 1022.9 0.0
29/03:30pm 12.0 6.4 5.2 63 3.3 SE 24 39 13 21 1023.2 - 0.0
29/03:00pm 11.9 5.5 5.3 64 3.2 SSE 28 43 15 23 1023.5 1023.3 0.0
29/02:30pm 11.3 4.7 4.3 62 3.3 SSE 28 37 15 20 1023.4 - 0.0
29/02:00pm 11.4 4.2 5.1 65 3.0 SSE 32 44 17 24 1023.5 1023.3 0.0
29/01:30pm 12.3 4.6 5.5 63 3.3 SSE 35 48 19 26 1023.7 - 0.0
29/01:00pm 11.9 5.3 6.2 68 2.8 SSE 30 43 16 23 1024.0 1023.8 0.0
29/12:30pm 11.3 3.9 5.0 65 3.0 SSE 33 43 18 23 1024.3 - 0.0
29/12:00pm 11.8 3.6 5.0 63 3.2 SE 37 50 20 27 1024.8 1024.6 0.0
29/11:30am 11.0 3.7 4.7 65 3.0 SE 32 43 17 23 1025.2 - 0.0
29/11:00am 10.8 2.6 4.7 66 2.9 SE 37 48 20 26 1025.5 1025.4 0.0
29/10:30am 10.4 2.4 5.8 73 2.2 SSE 37 50 20 27 1025.5 - 0.0
29/10:01am 9.1 -0.3 4.5 73 2.1 SSE 43 61 23 33 1025.3 - 0.0
29/10:00am 9.1 -0.3 4.3 72 2.2 SSE 43 59 23 32 1025.4 1025.3 0.0
29/09:45am 8.6 0.0 4.8 77 1.8 SSE 39 57 21 31 1025.6 - 0.0
29/09:30am 8.9 0.2 5.8 81 1.5 SE 41 48 22 26 1025.6 - 0.0
29/09:00am 8.7 0.8 6.0 83 1.3 SE 37 50 20 27 1025.7 1025.6 0.8
29/08:30am 8.5 -0.7 5.6 82 1.4 SE 43 56 23 30 1025.4 - 0.8
29/08:00am 8.2 -0.6 5.7 84 1.2 SE 41 56 22 30 1025.2 1025.0 0.8
29/07:30am 7.4 -0.6 5.7 89 0.8 SE 37 50 20 27 1025.3 - 0.8
29/07:00am 6.7 -1.7 5.5 92 0.6 SE 39 48 21 26 1024.9 1024.7 0.8
29/06:38am 6.5 -2.0 5.3 92 0.6 SE 39 57 21 31 1024.9 - 0.8
29/06:30am 6.9 -1.9 5.4 90 0.7 SE 41 54 22 29 1024.7 - 0.8
29/06:00am 6.7 -1.7 5.7 93 0.5 SE 39 48 21 26 1024.3 1024.2 0.8
29/05:30am 6.5 -1.9 5.6 94 0.4 SE 39 50 21 27 1024.1 - 0.8
29/05:00am 6.5 -1.6 5.1 91 0.6 SE 37 46 20 25 1024.1 1023.9 0.8
29/04:30am 6.4 -1.8 4.9 90 0.7 SE 37 48 20 26 1024.3 - 0.8
29/04:00am 6.4 -1.8 4.9 90 0.7 SE 37 48 20 26 1024.2 1024.1 0.8
29/03:30am 6.8 -1.4 4.8 87 0.9 SE 37 50 20 27 1024.1 - 0.8
29/03:00am 6.3 -1.5 4.8 90 0.7 SE 35 44 19 24 1024.3 1024.2 0.8
29/02:30am 6.9 -0.6 4.7 86 1.0 SE 33 43 18 23 1024.6 - 0.8
29/02:00am 6.6 -0.8 5.1 90 0.7 SE 33 43 18 23 1024.8 1024.6 0.8
29/01:30am 6.8 -1.4 4.8 87 0.9 SE 37 54 20 29 1025.0 - 0.8
29/01:00am 6.9 -0.6 4.7 86 1.0 SE 33 46 18 25 1025.3 1025.1 0.8
29/12:30am 7.0 -0.4 4.8 86 1.0 SE 33 48 18 26 1025.4 - 0.8
29/12:00am 7.4 -0.5 4.5 82 1.3 SE 35 46 19 25 1025.5 1025.4 0.8
 
Date/Time
EST
Temp
°C
App
Temp
°C
Dew
Point
Rel
Hum
%
Delta-T
°C
Wind Press
QNH
hPa
Press
MSL
hPa
Rain
since 9 am
mm
Dir
 
Spd
km/h
Gust
km/h
Spd
kts
Gust
kts
28/11:30pm 7.9 -1.6 4.7 80 1.5 SE 44 56 24 30 1025.4 - 0.8
28/11:00pm 8.0 -1.3 4.8 80 1.5 SE 43 59 23 32 1025.4 1025.3 0.8
28/10:30pm 8.2 -1.7 4.8 79 1.6 SE 46 59 25 32 1025.5 - 0.8
28/10:00pm 8.2 -2.0 5.0 80 1.5 SE 48 65 26 35 1025.5 1025.4 0.8
28/09:53pm 8.4 -1.5 4.8 78 1.7 SE 46 65 25 35 1025.4 - 0.8
28/09:30pm 8.4 -2.3 4.8 78 1.7 SE 50 63 27 34 1025.6 - 0.8
28/09:00pm 8.5 -1.8 4.7 77 1.7 SE 48 63 26 34 1025.8 1025.7 0.8
28/08:50pm 8.6 -0.7 5.0 78 1.7 SSE 43 61 23 33 1025.7 - 0.8
28/08:30pm 9.0 -1.7 4.6 74 2.0 SSE 50 63 27 34 1025.4 - 0.8
28/08:00pm 9.2 -2.4 5.6 78 1.7 SSE 56 69 30 37 1025.0 1024.8 0.8
28/07:32pm 9.1 -0.8 6.4 83 1.3 SSE 48 67 26 36 1025.2 - 0.8
28/07:30pm 9.1 -1.2 6.4 83 1.3 SSE 50 67 27 36 1025.1 - 0.8
28/07:11pm 9.2 0.1 6.8 85 1.2 SE 44 65 24 35 1024.9 - 0.8
28/07:00pm 8.7 0.7 7.3 91 0.7 SSE 39 48 21 26 1025.1 1024.9 0.8
28/06:30pm 9.0 0.1 7.5 90 0.7 SSE 44 61 24 33 1024.9 - 0.8
28/06:29pm 9.0 0.3 7.5 90 0.7 SSE 43 61 23 33 1024.9 - 0.8
28/06:23pm 8.9 0.1 7.4 90 0.7 SSE 43 61 23 33 1024.8 - 0.8
28/06:00pm 9.3 0.3 7.4 88 0.9 SSE 44 54 24 29 1024.7 1024.5 0.0
28/05:30pm 10.1 0.4 5.9 75 2.0 SSE 46 59 25 32 1024.2 - 0.0
28/05:00pm 10.8 1.5 5.1 68 2.7 SE 43 61 23 33 1023.8 1023.6 0.0
28/04:59pm 10.8 1.9 4.9 67 2.8 SE 41 61 22 33 1023.7 - 0.0
28/04:30pm 11.3 1.2 5.6 68 2.7 SSE 48 59 26 32 1023.7 - 0.0
28/04:00pm 11.6 4.1 7.9 78 1.9 SSE 37 52 20 28 1023.5 1023.3 0.0
28/03:30pm 12.0 4.3 7.3 73 2.4 SE 37 52 20 28 1023.4 - 0.0
28/03:00pm 12.1 3.7 5.7 65 3.1 SE 39 50 21 27 1023.1 1022.9 0.0
28/02:30pm 12.0 3.8 6.7 70 2.6 SSE 39 50 21 27 1022.9 - 0.0
28/02:00pm 11.5 2.3 8.2 80 1.7 SSE 46 61 25 33 1023.1 1022.9 0.0
28/01:30pm 11.8 3.3 6.9 72 2.4 SE 41 61 22 33 1023.3 - 0.0
28/01:23pm 12.3 3.8 7.0 70 2.7 SE 41 61 22 33 1022.8 - 0.0
28/01:00pm 11.7 4.8 7.4 75 2.2 SSE 33 48 18 26 1023.4 1023.2 0.0
28/12:30pm 11.8 3.6 6.5 70 2.6 SSE 39 52 21 28 1023.4 - 0.0
28/12:15pm 12.9 4.4 7.1 68 2.9 SSE 41 59 22 32 1023.6 - 0.0
28/12:00pm 12.5 3.7 7.4 71 2.6 SSE 43 59 23 32 1023.7 1023.5 0.0
28/11:32am 12.2 2.5 7.5 73 2.4 SE 48 67 26 36 1023.3 - 0.0
28/11:30am 11.9 1.8 7.2 73 2.4 SE 50 67 27 36 1023.2 - 0.0
28/11:18am 11.4 0.8 6.9 74 2.2 SSE 52 70 28 38 1022.8 - 0.0
28/11:00am 11.7 1.6 7.4 75 2.2 SE 50 65 27 35 1023.3 1023.1 0.0
28/10:41am 11.1 0.3 7.6 79 1.8 SE 54 72 29 39 1022.9 - 0.0
28/10:30am 11.0 0.5 7.5 79 1.8 SE 52 69 28 37 1023.2 - 0.0
28/10:12am 10.1 -0.4 7.3 83 1.4 SSE 52 70 28 38 1023.3 - 0.0
28/10:05am 10.1 -0.5 7.0 81 1.5 SSE 52 70 28 38 1023.3 - 0.0
28/10:00am 10.0 -0.5 7.4 84 1.3 SSE 52 65 28 35 1023.5 1023.3 0.0
28/09:44am 9.5 -0.1 8.1 91 0.7 SSE 48 67 26 36 1023.3 - 0.0
28/09:30am 9.5 -0.2 7.6 88 0.9 SE 48 63 26 34 1023.5 - 0.0
28/09:00am 8.8 0.1 7.9 94 0.4 SE 43 56 23 30 1023.6 1023.4 2.2
28/08:30am 8.9 0.0 7.7 92 0.6 SSE 44 56 24 30 1023.2 - 2.2
28/08:00am 8.6 -0.3 7.8 95 0.4 SSE 44 59 24 32 1022.8 1022.6 2.2
28/07:30am 8.1 -0.5 8.0 99 0.0 SSE 43 54 23 29 1022.4 - 2.2
28/07:18am 8.2 -0.5 7.8 97 0.2 SSE 43 59 23 32 1022.2 - 2.2
28/07:03am 8.0 -1.6 7.9 99 0.0 SSE 48 70 26 38 1021.7 - 2.2
28/07:00am 7.8 -1.9 7.7 99 0.0 SSE 48 65 26 35 1021.9 1021.7 2.2
28/06:54am 7.9 -2.2 7.6 98 0.1 SSE 50 65 27 35 1021.7 - 2.2
28/06:30am 8.0 -2.1 7.6 97 0.2 SE 50 67 27 36 1021.4 - 2.2
28/06:00am 7.8 -1.5 7.7 99 0.0 SSE 46 65 25 35 1021.3 1021.1 2.2
28/05:44am 8.1 -1.6 7.7 97 0.2 SSE 48 67 26 36 1020.9 - 2.2
28/05:30am 8.4 -0.9 7.5 94 0.4 SE 46 61 25 33 1020.9 - 2.2
28/05:03am 8.1 -1.1 7.8 98 0.1 SSE 46 67 25 36 1020.7 - 2.2
28/05:00am 7.9 -1.4 7.5 97 0.2 SSE 46 63 25 34 1020.8 1020.6 2.2
28/04:37am 8.0 -1.3 7.6 97 0.2 SE 46 65 25 35 1020.9 - 2.2
28/04:30am 8.0 -2.1 7.4 96 0.3 SSE 50 65 27 35 1020.7 - 2.2
28/04:00am 7.8 -3.1 7.4 97 0.2 SSE 54 69 29 37 1020.4 1020.1 2.2
28/03:38am 8.0 -2.8 7.6 97 0.2 SSE 54 76 29 41 1020.2 - 2.2
28/03:30am 7.7 -2.8 7.4 98 0.1 SSE 52 69 28 37 1020.5 - 2.2
28/03:03am 7.8 -3.1 7.4 97 0.2 SSE 54 72 29 39 1020.4 - 2.2
28/03:00am 7.8 -3.4 7.4 97 0.2 SSE 56 72 30 39 1020.5 1020.2 2.2
28/02:41am 7.6 -2.5 7.3 98 0.1 SSE 50 69 27 37 1020.7 - 2.2
28/02:30am 7.7 -2.8 7.3 97 0.2 SSE 52 69 28 37 1020.6 - 2.2
28/02:15am 7.8 -3.1 7.2 96 0.3 SE 54 72 29 39 1020.9 - 2.2
28/02:04am 7.9 -3.0 7.3 96 0.3 SE 54 69 29 37 1020.7 - 2.2
28/02:00am 7.8 -3.1 7.2 96 0.3 SE 54 69 29 37 1020.8 1020.6 2.2
28/01:50am 7.7 -3.8 7.1 96 0.3 SE 57 76 31 41 1020.9 - 2.2
28/01:30am 8.1 -3.8 7.2 94 0.4 SSE 59 80 32 43 1021.0 - 2.2
28/01:00am 8.2 -3.3 7.1 93 0.5 SSE 57 76 31 41 1021.1 1020.9 2.2
28/12:30am 8.3 -1.9 6.9 91 0.7 SSE 50 69 27 37 1021.8 - 2.2
28/12:00am 8.5 -4.5 7.1 91 0.7 SSE 65 91 35 49 1021.0 1020.8 2.2
 
Date/Time
EST
Temp
°C
App
Temp
°C
Dew
Point
Rel
Hum
%
Delta-T
°C
Wind Press
QNH
hPa
Press
MSL
hPa
Rain
since 9 am
mm
Dir
 
Spd
km/h
Gust
km/h
Spd
kts
Gust
kts
27/11:37pm 8.4 -3.8 7.2 92 0.6 SSE 61 83 33 45 1021.2 - 2.2
27/11:30pm 8.4 -3.4 7.3 93 0.5 SSE 59 78 32 42 1021.2 - 2.2
27/11:25pm 8.2 -4.0 7.4 95 0.4 SE 61 80 33 43 1021.3 - 2.2
27/11:18pm 8.3 -4.7 7.2 93 0.5 SSE 65 80 35 43 1021.1 - 2.2
27/11:02pm 8.2 -4.3 7.6 96 0.3 SSE 63 83 34 45 1021.1 - 2.2
27/11:00pm 8.3 -4.6 7.7 96 0.3 SSE 65 83 35 45 1021.0 1020.8 2.2
27/10:56pm 8.3 -4.2 7.7 96 0.3 SSE 63 83 34 45 1021.1 - 2.2
27/10:30pm 8.1 -5.5 7.8 98 0.1 SE 69 87 37 47 1020.5 - 2.0
27/10:15pm 8.7 -3.7 8.1 96 0.3 SE 63 98 34 53 1020.5 - 1.8
27/10:10pm 8.4 -3.7 7.8 96 0.3 SE 61 80 33 43 1021.1 - 1.6
27/10:07pm 8.6 -3.9 7.7 94 0.4 SE 63 80 34 43 1021.1 - 1.6
27/10:00pm 9.0 -4.4 7.3 89 0.8 SE 67 87 36 47 1021.1 1020.9 1.6
27/09:58pm 9.0 -4.4 7.3 89 0.8 SE 67 87 36 47 1021.1 - 1.6
27/09:53pm 9.1 -3.9 7.2 88 0.9 SE 65 85 35 46 1021.1 - 1.6
27/09:30pm 8.8 -4.9 7.4 91 0.7 SSE 69 91 37 49 1021.2 - 1.6
27/09:18pm 8.9 -3.7 7.4 90 0.7 SE 63 93 34 50 1021.4 - 1.6
27/09:14pm 8.9 -3.3 7.2 89 0.8 SE 61 83 33 45 1021.2 - 1.6
27/09:00pm 8.9 -4.9 7.0 88 0.9 SSE 69 87 37 47 1021.4 1021.2 1.6
27/08:59pm 8.9 -4.8 7.4 90 0.7 SSE 69 87 37 47 1021.5 - 1.6
27/08:58pm 9.0 -5.3 7.5 90 0.7 SSE 72 80 39 43 1021.3 - 1.6
27/08:41pm 8.6 -0.9 8.5 99 0.1 SSE 48 83 26 45 1022.0 - 1.6
27/08:30pm 9.1 0.5 9.0 99 0.1 SSE 44 65 24 35 1022.0 - 1.2
27/08:06pm 9.3 0.2 8.4 94 0.5 SSE 46 67 25 36 1021.8 - 0.4
27/08:05pm 9.3 0.2 8.5 95 0.4 SSE 46 61 25 33 1022.0 - 0.4
27/08:00pm 9.3 -0.6 8.4 94 0.5 SSE 50 72 27 39 1022.2 1022.0 0.4
27/07:30pm 9.4 0.3 8.5 94 0.5 SE 46 65 25 35 1022.2 - 0.2
27/07:03pm 9.4 1.7 8.6 95 0.4 SSE 39 59 21 32 1021.9 - 0.2
27/07:00pm 9.3 1.6 8.7 96 0.3 SE 39 48 21 26 1022.1 1021.9 0.2
27/06:58pm 9.3 1.2 8.5 95 0.4 SE 41 56 22 30 1022.1 - 0.2
27/06:38pm 9.4 0.3 8.5 94 0.5 SE 46 65 25 35 1021.7 - 0.2
27/06:37pm 9.4 0.3 8.5 94 0.5 SSE 46 61 25 33 1021.5 - 0.2
27/06:36pm 9.4 0.3 8.5 94 0.5 SSE 46 59 25 32 1021.7 - 0.2
27/06:30pm 9.6 0.9 8.4 92 0.6 SSE 44 59 24 32 1021.4 - 0.0
27/06:06pm 10.0 0.8 7.9 87 1.1 SE 46 65 25 35 1021.3 - 0.0
27/06:00pm 10.0 0.4 7.8 86 1.1 SE 48 65 26 35 1021.1 1020.9 0.0
27/05:55pm 9.9 0.7 7.8 87 1.1 SE 46 63 25 34 1020.9 - 0.0
27/05:45pm 9.9 0.3 8.0 88 1.0 SE 48 63 26 34 1020.8 - 0.0
27/05:34pm 9.8 0.6 8.2 90 0.8 SE 46 67 25 36 1020.5 - 0.0
27/05:30pm 9.6 1.0 8.7 94 0.5 SE 44 57 24 31 1020.7 - 0.0
27/05:20pm 9.8 1.4 8.9 94 0.5 SE 43 56 23 30 1020.7 - 0.0
27/05:18pm 9.9 1.4 8.7 92 0.6 SE 43 56 23 30 1020.6 - 0.0
27/05:01pm 9.9 1.2 8.3 90 0.8 SE 44 59 24 32 1020.6 - 0.0
27/05:00pm 10.0 1.3 8.3 89 0.9 SE 44 59 24 32 1020.5 1020.2 0.0
27/04:30pm 11.1 1.3 7.2 77 1.9 SSE 48 69 26 37 1020.0 - 0.0
27/04:13pm 10.8 2.6 8.0 83 1.4 SSE 41 61 22 33 1020.0 - 0.0
27/04:09pm 10.7 2.6 8.6 87 1.1 SSE 41 56 22 30 1020.3 - 0.0
27/04:00pm 10.6 3.4 9.0 90 0.8 SSE 37 52 20 28 1020.2 1019.9 0.0
27/03:40pm 10.1 3.7 9.2 94 0.5 SSE 33 50 18 27 1020.2 - 0.0
27/03:33pm 10.5 4.7 9.4 93 0.6 SSE 30 48 16 26 1020.4 - 0.0
27/03:30pm 10.3 4.0 9.1 92 0.6 SSE 32 48 17 26 1020.4 - 0.0
27/03:00pm 12.6 4.8 8.1 74 2.3 SSE 39 56 21 30 1019.9 1019.7 0.0
27/02:37pm 12.7 3.6 6.7 67 3.0 SE 44 67 24 36 1019.4 - 0.0
27/02:30pm 13.2 4.6 8.3 72 2.5 SSE 43 59 23 32 1019.7 - 0.0
27/02:00pm 13.2 4.1 8.5 73 2.4 SSE 46 67 25 36 1019.8 1019.6 0.0
27/01:57pm 12.8 3.5 7.7 71 2.6 SSE 46 67 25 36 1019.5 - 0.0
27/01:30pm 12.5 3.9 8.0 74 2.3 SSE 43 57 23 31 1020.0 - 0.0
27/01:00pm 12.7 4.1 8.2 74 2.3 SSE 43 57 23 31 1020.0 1019.8 0.0
27/12:36pm 12.3 2.8 6.8 69 2.7 SSE 46 69 25 37 1019.6 - 0.0
27/12:30pm 12.5 2.5 6.1 65 3.1 SSE 48 65 26 35 1020.0 - 0.0
27/12:00pm 12.1 2.1 4.3 59 3.7 SE 46 69 25 37 1020.5 1020.2 0.0
27/11:32am 11.8 2.6 5.4 65 3.1 SSE 43 65 23 35 1020.7 - 0.0
27/11:30am 11.8 3.6 6.5 70 2.6 SSE 39 54 21 29 1020.9 - 0.0
27/11:00am 11.6 1.0 5.3 65 3.0 SE 50 63 27 34 1021.0 1020.8 0.0
27/10:35am 11.2 2.3 6.7 74 2.2 SE 43 61 23 33 1021.3 - 0.0
27/10:30am 11.0 1.0 6.2 72 2.3 SSE 48 61 26 33 1021.1 - 0.0
27/10:13am 10.8 0.9 6.4 74 2.2 SE 48 67 26 36 1021.1 - 0.0

Other Formats:

Comma delimited format used in spreadsheet applications
http://www.bom.gov.au/fwo/IDN60801/IDN60801.95747.axf

JavaScript Object Notation format (JSON) in row-major order
http://www.bom.gov.au/fwo/IDN60801/IDN60801.95747.json